sensor_id;sensor_type;location;lat;lon;timestamp;P1;durP1;ratioP1;P2;durP2;ratioP2
61085;SDS011;46967;48.876;2.136;2023-07-22T00:00:57;5.35;;;3.00;;
61085;SDS011;46967;48.876;2.136;2023-07-22T00:03:22;6.43;;;2.97;;
61085;SDS011;46967;48.876;2.136;2023-07-22T00:05:48;5.55;;;2.80;;
61085;SDS011;46967;48.876;2.136;2023-07-22T00:08:14;3.25;;;2.45;;
61085;SDS011;46967;48.876;2.136;2023-07-22T00:10:42;5.28;;;2.58;;
61085;SDS011;46967;48.876;2.136;2023-07-22T00:13:08;4.77;;;3.00;;
61085;SDS011;46967;48.876;2.136;2023-07-22T00:15:33;6.50;;;2.78;;
61085;SDS011;46967;48.876;2.136;2023-07-22T00:17:58;5.00;;;2.55;;
61085;SDS011;46967;48.876;2.136;2023-07-22T00:20:24;4.38;;;2.67;;
61085;SDS011;46967;48.876;2.136;2023-07-22T00:22:50;4.53;;;2.88;;
61085;SDS011;46967;48.876;2.136;2023-07-22T00:25:17;5.80;;;3.20;;
61085;SDS011;46967;48.876;2.136;2023-07-22T00:27:42;11.05;;;2.58;;
61085;SDS011;46967;48.876;2.136;2023-07-22T00:30:08;4.63;;;2.78;;
61085;SDS011;46967;48.876;2.136;2023-07-22T00:32:34;4.25;;;2.65;;
61085;SDS011;46967;48.876;2.136;2023-07-22T00:35:02;3.63;;;2.75;;
61085;SDS011;46967;48.876;2.136;2023-07-22T00:37:28;5.60;;;2.83;;
61085;SDS011;46967;48.876;2.136;2023-07-22T00:39:53;3.70;;;2.65;;
61085;SDS011;46967;48.876;2.136;2023-07-22T00:42:19;4.00;;;2.78;;
61085;SDS011;46967;48.876;2.136;2023-07-22T00:44:45;5.35;;;3.15;;
61085;SDS011;46967;48.876;2.136;2023-07-22T00:47:11;5.10;;;2.85;;
61085;SDS011;46967;48.876;2.136;2023-07-22T00:49:37;3.97;;;2.60;;
61085;SDS011;46967;48.876;2.136;2023-07-22T00:52:03;4.07;;;2.60;;
61085;SDS011;46967;48.876;2.136;2023-07-22T00:54:30;4.70;;;2.50;;
61085;SDS011;46967;48.876;2.136;2023-07-22T00:56:56;5.25;;;2.90;;
61085;SDS011;46967;48.876;2.136;2023-07-22T00:59:23;4.18;;;2.80;;
61085;SDS011;46967;48.876;2.136;2023-07-22T01:01:49;4.53;;;2.60;;
61085;SDS011;46967;48.876;2.136;2023-07-22T01:04:14;4.22;;;2.60;;
61085;SDS011;46967;48.876;2.136;2023-07-22T01:06:43;3.78;;;2.67;;
61085;SDS011;46967;48.876;2.136;2023-07-22T01:09:09;4.78;;;2.50;;
61085;SDS011;46967;48.876;2.136;2023-07-22T01:11:35;4.45;;;2.70;;
61085;SDS011;46967;48.876;2.136;2023-07-22T01:14:00;5.20;;;3.30;;
61085;SDS011;46967;48.876;2.136;2023-07-22T01:16:27;4.95;;;2.88;;
61085;SDS011;46967;48.876;2.136;2023-07-22T01:18:53;5.30;;;3.20;;
61085;SDS011;46967;48.876;2.136;2023-07-22T01:21:20;6.72;;;3.17;;
61085;SDS011;46967;48.876;2.136;2023-07-22T01:23:48;7.97;;;3.45;;
61085;SDS011;46967;48.876;2.136;2023-07-22T01:26:13;5.47;;;3.20;;
61085;SDS011;46967;48.876;2.136;2023-07-22T01:28:39;6.15;;;2.90;;
61085;SDS011;46967;48.876;2.136;2023-07-22T01:31:04;4.55;;;2.88;;
61085;SDS011;46967;48.876;2.136;2023-07-22T01:33:30;5.47;;;3.25;;
61085;SDS011;46967;48.876;2.136;2023-07-22T01:35:56;5.15;;;3.28;;
61085;SDS011;46967;48.876;2.136;2023-07-22T01:38:22;4.75;;;2.80;;
61085;SDS011;46967;48.876;2.136;2023-07-22T01:40:47;5.22;;;3.10;;
61085;SDS011;46967;48.876;2.136;2023-07-22T01:43:12;5.75;;;3.10;;
61085;SDS011;46967;48.876;2.136;2023-07-22T01:45:38;6.28;;;3.10;;
61085;SDS011;46967;48.876;2.136;2023-07-22T01:48:04;5.15;;;3.42;;
61085;SDS011;46967;48.876;2.136;2023-07-22T01:50:31;4.05;;;3.10;;
61085;SDS011;46967;48.876;2.136;2023-07-22T01:52:56;5.07;;;3.58;;
61085;SDS011;46967;48.876;2.136;2023-07-22T01:55:21;6.25;;;3.40;;
61085;SDS011;46967;48.876;2.136;2023-07-22T01:57:47;4.25;;;2.85;;
61085;SDS011;46967;48.876;2.136;2023-07-22T02:00:12;5.68;;;3.28;;
61085;SDS011;46967;48.876;2.136;2023-07-22T02:02:40;7.35;;;3.15;;
61085;SDS011;46967;48.876;2.136;2023-07-22T02:05:06;5.55;;;3.58;;
61085;SDS011;46967;48.876;2.136;2023-07-22T02:07:32;6.03;;;3.20;;
61085;SDS011;46967;48.876;2.136;2023-07-22T02:09:57;5.30;;;3.55;;
61085;SDS011;46967;48.876;2.136;2023-07-22T02:12:23;6.65;;;3.08;;
61085;SDS011;46967;48.876;2.136;2023-07-22T02:14:48;6.90;;;3.40;;
61085;SDS011;46967;48.876;2.136;2023-07-22T02:17:13;4.45;;;3.30;;
61085;SDS011;46967;48.876;2.136;2023-07-22T02:19:39;6.45;;;3.33;;
61085;SDS011;46967;48.876;2.136;2023-07-22T02:22:04;6.25;;;3.45;;
61085;SDS011;46967;48.876;2.136;2023-07-22T02:24:30;4.35;;;3.30;;
61085;SDS011;46967;48.876;2.136;2023-07-22T02:26:55;5.28;;;3.60;;
61085;SDS011;46967;48.876;2.136;2023-07-22T02:29:21;7.40;;;3.90;;
61085;SDS011;46967;48.876;2.136;2023-07-22T02:31:46;5.90;;;3.60;;
61085;SDS011;46967;48.876;2.136;2023-07-22T02:34:11;5.97;;;3.90;;
61085;SDS011;46967;48.876;2.136;2023-07-22T02:36:37;5.70;;;3.58;;
61085;SDS011;46967;48.876;2.136;2023-07-22T02:39:02;6.53;;;3.55;;
61085;SDS011;46967;48.876;2.136;2023-07-22T02:41:28;6.03;;;3.95;;
61085;SDS011;46967;48.876;2.136;2023-07-22T02:43:54;7.40;;;3.67;;
61085;SDS011;46967;48.876;2.136;2023-07-22T02:46:19;7.60;;;3.70;;
61085;SDS011;46967;48.876;2.136;2023-07-22T02:48:45;7.50;;;4.20;;
61085;SDS011;46967;48.876;2.136;2023-07-22T02:51:10;5.65;;;3.83;;
61085;SDS011;46967;48.876;2.136;2023-07-22T02:53:36;6.82;;;3.88;;
61085;SDS011;46967;48.876;2.136;2023-07-22T02:56:02;6.20;;;4.13;;
61085;SDS011;46967;48.876;2.136;2023-07-22T02:58:28;8.00;;;4.20;;
61085;SDS011;46967;48.876;2.136;2023-07-22T03:00:53;5.55;;;3.58;;
61085;SDS011;46967;48.876;2.136;2023-07-22T03:03:18;7.30;;;3.95;;
61085;SDS011;46967;48.876;2.136;2023-07-22T03:05:44;6.93;;;4.35;;
61085;SDS011;46967;48.876;2.136;2023-07-22T03:08:09;5.78;;;4.07;;
61085;SDS011;46967;48.876;2.136;2023-07-22T03:10:35;7.53;;;4.57;;
61085;SDS011;46967;48.876;2.136;2023-07-22T03:13:00;7.57;;;4.85;;
61085;SDS011;46967;48.876;2.136;2023-07-22T03:15:29;7.32;;;3.90;;
61085;SDS011;46967;48.876;2.136;2023-07-22T03:17:55;9.43;;;4.38;;
61085;SDS011;46967;48.876;2.136;2023-07-22T03:20:21;6.55;;;4.22;;
61085;SDS011;46967;48.876;2.136;2023-07-22T03:22:47;9.52;;;4.32;;
61085;SDS011;46967;48.876;2.136;2023-07-22T03:25:13;11.57;;;4.13;;
61085;SDS011;46967;48.876;2.136;2023-07-22T03:27:41;7.85;;;4.63;;
61085;SDS011;46967;48.876;2.136;2023-07-22T03:30:07;6.10;;;4.50;;
61085;SDS011;46967;48.876;2.136;2023-07-22T03:32:36;7.45;;;4.53;;
61085;SDS011;46967;48.876;2.136;2023-07-22T03:35:01;6.88;;;4.13;;
61085;SDS011;46967;48.876;2.136;2023-07-22T03:37:28;5.80;;;4.03;;
61085;SDS011;46967;48.876;2.136;2023-07-22T03:39:53;6.50;;;4.10;;
61085;SDS011;46967;48.876;2.136;2023-07-22T03:42:19;7.18;;;4.25;;
61085;SDS011;46967;48.876;2.136;2023-07-22T03:44:44;8.40;;;4.57;;
61085;SDS011;46967;48.876;2.136;2023-07-22T03:47:10;5.75;;;4.25;;
61085;SDS011;46967;48.876;2.136;2023-07-22T03:49:35;10.50;;;4.13;;
61085;SDS011;46967;48.876;2.136;2023-07-22T03:52:00;6.82;;;4.63;;
61085;SDS011;46967;48.876;2.136;2023-07-22T03:54:26;6.35;;;4.30;;
61085;SDS011;46967;48.876;2.136;2023-07-22T03:56:51;8.82;;;4.57;;
61085;SDS011;46967;48.876;2.136;2023-07-22T03:59:16;7.15;;;3.92;;
61085;SDS011;46967;48.876;2.136;2023-07-22T04:01:42;7.22;;;4.60;;
61085;SDS011;46967;48.876;2.136;2023-07-22T04:04:08;7.75;;;4.80;;
61085;SDS011;46967;48.876;2.136;2023-07-22T04:06:33;7.28;;;4.30;;
61085;SDS011;46967;48.876;2.136;2023-07-22T04:08:58;5.78;;;4.32;;
61085;SDS011;46967;48.876;2.136;2023-07-22T04:11:25;7.43;;;4.60;;
61085;SDS011;46967;48.876;2.136;2023-07-22T04:13:51;5.80;;;3.97;;
61085;SDS011;46967;48.876;2.136;2023-07-22T04:16:16;6.18;;;4.32;;
61085;SDS011;46967;48.876;2.136;2023-07-22T04:18:42;7.75;;;4.53;;
61085;SDS011;46967;48.876;2.136;2023-07-22T04:21:07;6.75;;;4.45;;
61085;SDS011;46967;48.876;2.136;2023-07-22T04:23:32;7.43;;;4.20;;
61085;SDS011;46967;48.876;2.136;2023-07-22T04:25:58;7.32;;;4.35;;
61085;SDS011;46967;48.876;2.136;2023-07-22T04:28:23;7.43;;;4.60;;
61085;SDS011;46967;48.876;2.136;2023-07-22T04:30:55;7.25;;;4.38;;
61085;SDS011;46967;48.876;2.136;2023-07-22T04:33:23;7.43;;;4.50;;
61085;SDS011;46967;48.876;2.136;2023-07-22T04:35:49;8.32;;;4.35;;
61085;SDS011;46967;48.876;2.136;2023-07-22T04:38:14;7.18;;;4.50;;
61085;SDS011;46967;48.876;2.136;2023-07-22T04:40:42;6.68;;;4.30;;
61085;SDS011;46967;48.876;2.136;2023-07-22T04:43:08;10.93;;;4.68;;
61085;SDS011;46967;48.876;2.136;2023-07-22T04:45:34;7.13;;;4.65;;
61085;SDS011;46967;48.876;2.136;2023-07-22T04:47:59;7.35;;;4.45;;
61085;SDS011;46967;48.876;2.136;2023-07-22T04:50:24;6.35;;;4.18;;
61085;SDS011;46967;48.876;2.136;2023-07-22T04:52:50;8.98;;;4.25;;
61085;SDS011;46967;48.876;2.136;2023-07-22T04:55:15;7.18;;;4.22;;
61085;SDS011;46967;48.876;2.136;2023-07-22T04:57:41;5.85;;;3.80;;
61085;SDS011;46967;48.876;2.136;2023-07-22T05:00:12;8.82;;;4.13;;
61085;SDS011;46967;48.876;2.136;2023-07-22T05:02:40;6.85;;;4.22;;
61085;SDS011;46967;48.876;2.136;2023-07-22T05:05:06;5.75;;;4.10;;
61085;SDS011;46967;48.876;2.136;2023-07-22T05:07:32;6.93;;;4.20;;
61085;SDS011;46967;48.876;2.136;2023-07-22T05:09:57;6.60;;;4.28;;
61085;SDS011;46967;48.876;2.136;2023-07-22T05:12:23;5.72;;;3.78;;
61085;SDS011;46967;48.876;2.136;2023-07-22T05:14:48;8.15;;;4.25;;
61085;SDS011;46967;48.876;2.136;2023-07-22T05:17:14;6.05;;;3.80;;
61085;SDS011;46967;48.876;2.136;2023-07-22T05:19:39;10.05;;;4.25;;
61085;SDS011;46967;48.876;2.136;2023-07-22T05:22:05;5.97;;;3.83;;
61085;SDS011;46967;48.876;2.136;2023-07-22T05:24:30;7.22;;;4.28;;
61085;SDS011;46967;48.876;2.136;2023-07-22T05:26:56;6.63;;;3.75;;
61085;SDS011;46967;48.876;2.136;2023-07-22T05:29:21;7.57;;;3.80;;
61085;SDS011;46967;48.876;2.136;2023-07-22T05:31:46;6.13;;;3.92;;
61085;SDS011;46967;48.876;2.136;2023-07-22T05:34:12;8.40;;;3.97;;
61085;SDS011;46967;48.876;2.136;2023-07-22T05:36:37;7.75;;;4.20;;
61085;SDS011;46967;48.876;2.136;2023-07-22T05:39:03;6.93;;;3.92;;
61085;SDS011;46967;48.876;2.136;2023-07-22T05:41:28;6.10;;;3.72;;
61085;SDS011;46967;48.876;2.136;2023-07-22T05:43:53;10.60;;;4.25;;
61085;SDS011;46967;48.876;2.136;2023-07-22T05:46:19;6.53;;;3.50;;
61085;SDS011;46967;48.876;2.136;2023-07-22T05:48:44;8.27;;;3.75;;
61085;SDS011;46967;48.876;2.136;2023-07-22T05:51:10;8.25;;;4.15;;
61085;SDS011;46967;48.876;2.136;2023-07-22T05:53:35;5.35;;;4.00;;
61085;SDS011;46967;48.876;2.136;2023-07-22T05:56:00;6.70;;;3.78;;
61085;SDS011;46967;48.876;2.136;2023-07-22T05:58:26;5.10;;;3.95;;
61085;SDS011;46967;48.876;2.136;2023-07-22T06:00:53;6.93;;;4.47;;
61085;SDS011;46967;48.876;2.136;2023-07-22T06:03:19;6.43;;;3.72;;
61085;SDS011;46967;48.876;2.136;2023-07-22T06:05:46;6.65;;;4.13;;
61085;SDS011;46967;48.876;2.136;2023-07-22T06:08:11;9.02;;;4.20;;
61085;SDS011;46967;48.876;2.136;2023-07-22T06:10:36;6.35;;;3.63;;
61085;SDS011;46967;48.876;2.136;2023-07-22T06:13:03;6.90;;;4.38;;
61085;SDS011;46967;48.876;2.136;2023-07-22T06:15:28;7.40;;;4.40;;
61085;SDS011;46967;48.876;2.136;2023-07-22T06:17:57;7.18;;;3.95;;
61085;SDS011;46967;48.876;2.136;2023-07-22T06:20:22;8.75;;;3.95;;
61085;SDS011;46967;48.876;2.136;2023-07-22T06:22:47;6.47;;;4.00;;
61085;SDS011;46967;48.876;2.136;2023-07-22T06:25:13;7.88;;;4.90;;
61085;SDS011;46967;48.876;2.136;2023-07-22T06:27:38;8.73;;;4.03;;
61085;SDS011;46967;48.876;2.136;2023-07-22T06:30:03;8.77;;;3.90;;
61085;SDS011;46967;48.876;2.136;2023-07-22T06:32:29;7.18;;;4.03;;
61085;SDS011;46967;48.876;2.136;2023-07-22T06:34:55;9.25;;;4.35;;
61085;SDS011;46967;48.876;2.136;2023-07-22T06:37:22;5.60;;;3.83;;
61085;SDS011;46967;48.876;2.136;2023-07-22T06:39:48;7.50;;;4.32;;
61085;SDS011;46967;48.876;2.136;2023-07-22T06:42:14;8.00;;;4.28;;
61085;SDS011;46967;48.876;2.136;2023-07-22T06:44:39;6.72;;;4.00;;
61085;SDS011;46967;48.876;2.136;2023-07-22T06:47:05;10.90;;;4.18;;
61085;SDS011;46967;48.876;2.136;2023-07-22T06:49:30;6.95;;;4.10;;
61085;SDS011;46967;48.876;2.136;2023-07-22T06:51:56;8.80;;;4.10;;
61085;SDS011;46967;48.876;2.136;2023-07-22T06:54:21;7.35;;;4.32;;
61085;SDS011;46967;48.876;2.136;2023-07-22T06:56:46;6.70;;;4.43;;
61085;SDS011;46967;48.876;2.136;2023-07-22T06:59:12;7.70;;;4.10;;
61085;SDS011;46967;48.876;2.136;2023-07-22T07:01:37;7.38;;;4.65;;
61085;SDS011;46967;48.876;2.136;2023-07-22T07:04:03;14.75;;;4.05;;
61085;SDS011;46967;48.876;2.136;2023-07-22T07:06:28;6.68;;;4.25;;
61085;SDS011;46967;48.876;2.136;2023-07-22T07:08:54;5.47;;;3.70;;
61085;SDS011;46967;48.876;2.136;2023-07-22T07:11:20;6.60;;;4.13;;
61085;SDS011;46967;48.876;2.136;2023-07-22T07:13:45;7.60;;;4.18;;
61085;SDS011;46967;48.876;2.136;2023-07-22T07:16:24;6.82;;;4.00;;
61085;SDS011;46967;48.876;2.136;2023-07-22T07:18:56;6.95;;;3.67;;
61085;SDS011;46967;48.876;2.136;2023-07-22T07:21:22;9.05;;;3.80;;
61085;SDS011;46967;48.876;2.136;2023-07-22T07:23:48;9.38;;;4.18;;
61085;SDS011;46967;48.876;2.136;2023-07-22T07:26:14;5.43;;;3.92;;
61085;SDS011;46967;48.876;2.136;2023-07-22T07:28:40;5.78;;;3.60;;
61085;SDS011;46967;48.876;2.136;2023-07-22T07:31:05;7.32;;;3.83;;
61085;SDS011;46967;48.876;2.136;2023-07-22T07:33:31;6.40;;;4.00;;
61085;SDS011;46967;48.876;2.136;2023-07-22T07:35:56;6.78;;;4.30;;
61085;SDS011;46967;48.876;2.136;2023-07-22T07:38:21;7.22;;;4.10;;
61085;SDS011;46967;48.876;2.136;2023-07-22T07:40:51;5.50;;;3.80;;
61085;SDS011;46967;48.876;2.136;2023-07-22T07:43:21;6.43;;;4.38;;
61085;SDS011;46967;48.876;2.136;2023-07-22T07:45:46;9.18;;;4.55;;
61085;SDS011;46967;48.876;2.136;2023-07-22T07:48:11;9.55;;;4.35;;
61085;SDS011;46967;48.876;2.136;2023-07-22T07:50:37;8.40;;;4.22;;
61085;SDS011;46967;48.876;2.136;2023-07-22T07:53:02;6.72;;;4.30;;
61085;SDS011;46967;48.876;2.136;2023-07-22T07:55:28;5.70;;;4.07;;
61085;SDS011;46967;48.876;2.136;2023-07-22T07:57:53;8.48;;;4.00;;
61085;SDS011;46967;48.876;2.136;2023-07-22T08:00:18;5.72;;;4.00;;
61085;SDS011;46967;48.876;2.136;2023-07-22T08:02:45;6.20;;;4.10;;
61085;SDS011;46967;48.876;2.136;2023-07-22T08:05:11;7.18;;;4.28;;
61085;SDS011;46967;48.876;2.136;2023-07-22T08:07:37;8.80;;;4.03;;
61085;SDS011;46967;48.876;2.136;2023-07-22T08:10:03;9.00;;;4.22;;
61085;SDS011;46967;48.876;2.136;2023-07-22T08:12:30;10.15;;;4.30;;
61085;SDS011;46967;48.876;2.136;2023-07-22T08:14:55;7.03;;;3.90;;
61085;SDS011;46967;48.876;2.136;2023-07-22T08:17:21;8.73;;;3.88;;
61085;SDS011;46967;48.876;2.136;2023-07-22T08:19:46;6.00;;;3.92;;
61085;SDS011;46967;48.876;2.136;2023-07-22T08:22:12;6.00;;;3.97;;
61085;SDS011;46967;48.876;2.136;2023-07-22T08:24:37;6.47;;;3.85;;
61085;SDS011;46967;48.876;2.136;2023-07-22T08:27:03;6.68;;;3.50;;
61085;SDS011;46967;48.876;2.136;2023-07-22T08:29:28;7.18;;;3.65;;
61085;SDS011;46967;48.876;2.136;2023-07-22T08:31:54;5.72;;;3.67;;
61085;SDS011;46967;48.876;2.136;2023-07-22T08:34:19;7.18;;;4.10;;
61085;SDS011;46967;48.876;2.136;2023-07-22T08:36:45;5.68;;;3.38;;
61085;SDS011;46967;48.876;2.136;2023-07-22T08:39:10;4.93;;;3.65;;
61085;SDS011;46967;48.876;2.136;2023-07-22T08:41:36;6.50;;;3.67;;
61085;SDS011;46967;48.876;2.136;2023-07-22T08:44:01;8.38;;;3.58;;
61085;SDS011;46967;48.876;2.136;2023-07-22T08:46:29;9.38;;;2.95;;
61085;SDS011;46967;48.876;2.136;2023-07-22T08:48:59;8.10;;;3.17;;
61085;SDS011;46967;48.876;2.136;2023-07-22T08:51:25;5.03;;;3.00;;
61085;SDS011;46967;48.876;2.136;2023-07-22T08:53:53;5.70;;;2.80;;
61085;SDS011;46967;48.876;2.136;2023-07-22T08:56:23;6.10;;;3.28;;
61085;SDS011;46967;48.876;2.136;2023-07-22T08:58:50;5.57;;;3.25;;
61085;SDS011;46967;48.876;2.136;2023-07-22T09:01:16;3.95;;;2.45;;
61085;SDS011;46967;48.876;2.136;2023-07-22T09:03:42;9.07;;;3.03;;
61085;SDS011;46967;48.876;2.136;2023-07-22T09:06:08;3.33;;;2.58;;
61085;SDS011;46967;48.876;2.136;2023-07-22T09:08:35;4.82;;;2.60;;
61085;SDS011;46967;48.876;2.136;2023-07-22T09:11:01;5.72;;;2.22;;
61085;SDS011;46967;48.876;2.136;2023-07-22T09:13:27;4.90;;;2.85;;
61085;SDS011;46967;48.876;2.136;2023-07-22T09:15:53;5.13;;;2.25;;
61085;SDS011;46967;48.876;2.136;2023-07-22T09:18:21;7.85;;;2.47;;
61085;SDS011;46967;48.876;2.136;2023-07-22T09:20:47;5.70;;;2.60;;
61085;SDS011;46967;48.876;2.136;2023-07-22T09:23:12;4.60;;;2.40;;
61085;SDS011;46967;48.876;2.136;2023-07-22T09:25:40;4.82;;;2.50;;
61085;SDS011;46967;48.876;2.136;2023-07-22T09:28:06;4.75;;;2.50;;
61085;SDS011;46967;48.876;2.136;2023-07-22T09:30:32;5.43;;;2.70;;
61085;SDS011;46967;48.876;2.136;2023-07-22T09:33:01;3.97;;;2.28;;
61085;SDS011;46967;48.876;2.136;2023-07-22T09:35:31;3.42;;;2.30;;
61085;SDS011;46967;48.876;2.136;2023-07-22T09:38:05;3.92;;;2.58;;
61085;SDS011;46967;48.876;2.136;2023-07-22T09:40:30;9.10;;;2.75;;
61085;SDS011;46967;48.876;2.136;2023-07-22T09:42:56;2.67;;;2.20;;
61085;SDS011;46967;48.876;2.136;2023-07-22T09:45:27;5.60;;;2.80;;
61085;SDS011;46967;48.876;2.136;2023-07-22T09:47:54;4.97;;;2.72;;
61085;SDS011;46967;48.876;2.136;2023-07-22T09:50:21;4.32;;;3.00;;
61085;SDS011;46967;48.876;2.136;2023-07-22T09:52:49;4.38;;;2.70;;
61085;SDS011;46967;48.876;2.136;2023-07-22T09:55:15;5.45;;;2.72;;
61085;SDS011;46967;48.876;2.136;2023-07-22T09:57:55;5.22;;;3.13;;
61085;SDS011;46967;48.876;2.136;2023-07-22T10:00:24;6.15;;;2.63;;
61085;SDS011;46967;48.876;2.136;2023-07-22T10:02:52;4.05;;;2.60;;
61085;SDS011;46967;48.876;2.136;2023-07-22T10:05:20;6.38;;;2.58;;
61085;SDS011;46967;48.876;2.136;2023-07-22T10:07:50;3.95;;;3.00;;
61085;SDS011;46967;48.876;2.136;2023-07-22T10:10:18;5.35;;;2.90;;
61085;SDS011;46967;48.876;2.136;2023-07-22T10:12:45;3.60;;;2.70;;
61085;SDS011;46967;48.876;2.136;2023-07-22T10:15:12;7.38;;;2.90;;
61085;SDS011;46967;48.876;2.136;2023-07-22T10:17:40;6.95;;;2.95;;
61085;SDS011;46967;48.876;2.136;2023-07-22T10:20:06;6.47;;;3.20;;
61085;SDS011;46967;48.876;2.136;2023-07-22T10:22:44;4.82;;;3.00;;
61085;SDS011;46967;48.876;2.136;2023-07-22T10:27:37;3.88;;;2.10;;
61085;SDS011;46967;48.876;2.136;2023-07-22T10:30:05;3.15;;;2.15;;
61085;SDS011;46967;48.876;2.136;2023-07-22T10:32:33;4.03;;;2.30;;
61085;SDS011;46967;48.876;2.136;2023-07-22T10:35:03;4.20;;;1.80;;
61085;SDS011;46967;48.876;2.136;2023-07-22T10:37:33;5.03;;;2.42;;
61085;SDS011;46967;48.876;2.136;2023-07-22T10:40:00;2.78;;;2.05;;
61085;SDS011;46967;48.876;2.136;2023-07-22T10:42:40;2.78;;;1.73;;
61085;SDS011;46967;48.876;2.136;2023-07-22T10:45:18;1.92;;;1.30;;
61085;SDS011;46967;48.876;2.136;2023-07-22T10:47:55;5.68;;;1.90;;
61085;SDS011;46967;48.876;2.136;2023-07-22T10:50:26;3.17;;;1.50;;
61085;SDS011;46967;48.876;2.136;2023-07-22T10:53:37;2.88;;;1.60;;
61085;SDS011;46967;48.876;2.136;2023-07-22T10:56:03;3.72;;;1.75;;
61085;SDS011;46967;48.876;2.136;2023-07-22T10:58:30;2.33;;;1.48;;
61085;SDS011;46967;48.876;2.136;2023-07-22T11:01:15;3.03;;;1.30;;
61085;SDS011;46967;48.876;2.136;2023-07-22T11:11:53;2.95;;;1.50;;
61085;SDS011;46967;48.876;2.136;2023-07-22T11:16:47;2.08;;;1.65;;
61085;SDS011;46967;48.876;2.136;2023-07-22T11:19:14;3.20;;;1.55;;
61085;SDS011;46967;48.876;2.136;2023-07-22T11:21:40;4.85;;;1.65;;
61085;SDS011;46967;48.876;2.136;2023-07-22T11:24:06;5.28;;;1.73;;
61085;SDS011;46967;48.876;2.136;2023-07-22T11:26:32;2.97;;;1.40;;
61085;SDS011;46967;48.876;2.136;2023-07-22T11:29:02;2.67;;;1.58;;
61085;SDS011;46967;48.876;2.136;2023-07-22T11:31:35;2.65;;;1.50;;
61085;SDS011;46967;48.876;2.136;2023-07-22T11:34:17;2.42;;;1.50;;
61085;SDS011;46967;48.876;2.136;2023-07-22T11:36:46;3.03;;;1.43;;
61085;SDS011;46967;48.876;2.136;2023-07-22T11:39:14;4.25;;;1.73;;
61085;SDS011;46967;48.876;2.136;2023-07-22T11:41:43;3.08;;;1.70;;
61085;SDS011;46967;48.876;2.136;2023-07-22T11:44:11;3.47;;;1.75;;
61085;SDS011;46967;48.876;2.136;2023-07-22T11:46:55;2.65;;;1.45;;
61085;SDS011;46967;48.876;2.136;2023-07-22T11:49:31;2.60;;;1.70;;
61085;SDS011;46967;48.876;2.136;2023-07-22T11:54:25;3.17;;;1.50;;
61085;SDS011;46967;48.876;2.136;2023-07-22T11:56:51;4.13;;;1.90;;
61085;SDS011;46967;48.876;2.136;2023-07-22T11:59:17;2.75;;;1.77;;
61085;SDS011;46967;48.876;2.136;2023-07-22T12:01:43;2.58;;;1.80;;
61085;SDS011;46967;48.876;2.136;2023-07-22T12:04:11;5.20;;;1.88;;
61085;SDS011;46967;48.876;2.136;2023-07-22T12:06:38;2.47;;;1.80;;
61085;SDS011;46967;48.876;2.136;2023-07-22T12:09:03;1.80;;;1.60;;
61085;SDS011;46967;48.876;2.136;2023-07-22T12:11:31;2.40;;;1.65;;
61085;SDS011;46967;48.876;2.136;2023-07-22T12:14:13;3.08;;;2.00;;
61085;SDS011;46967;48.876;2.136;2023-07-22T12:16:40;3.90;;;1.65;;
61085;SDS011;46967;48.876;2.136;2023-07-22T12:19:09;8.40;;;1.80;;
61085;SDS011;46967;48.876;2.136;2023-07-22T12:21:34;3.63;;;1.60;;
61085;SDS011;46967;48.876;2.136;2023-07-22T12:24:00;2.63;;;1.40;;
61085;SDS011;46967;48.876;2.136;2023-07-22T12:26:27;3.55;;;1.88;;
61085;SDS011;46967;48.876;2.136;2023-07-22T12:28:52;2.45;;;1.55;;
61085;SDS011;46967;48.876;2.136;2023-07-22T12:31:18;3.90;;;1.70;;
61085;SDS011;46967;48.876;2.136;2023-07-22T12:33:43;3.25;;;1.73;;
61085;SDS011;46967;48.876;2.136;2023-07-22T12:36:09;2.70;;;1.70;;
61085;SDS011;46967;48.876;2.136;2023-07-22T12:38:34;4.03;;;1.60;;
61085;SDS011;46967;48.876;2.136;2023-07-22T12:41:00;5.20;;;2.05;;
61085;SDS011;46967;48.876;2.136;2023-07-22T12:43:26;3.70;;;1.77;;
61085;SDS011;46967;48.876;2.136;2023-07-22T12:45:52;5.82;;;1.88;;
61085;SDS011;46967;48.876;2.136;2023-07-22T12:48:17;4.03;;;1.80;;
61085;SDS011;46967;48.876;2.136;2023-07-22T12:50:45;2.85;;;1.70;;
61085;SDS011;46967;48.876;2.136;2023-07-22T12:53:14;4.65;;;1.80;;
61085;SDS011;46967;48.876;2.136;2023-07-22T12:55:39;3.17;;;1.70;;
61085;SDS011;46967;48.876;2.136;2023-07-22T12:58:04;4.13;;;2.10;;
61085;SDS011;46967;48.876;2.136;2023-07-22T13:00:30;5.47;;;1.92;;
61085;SDS011;46967;48.876;2.136;2023-07-22T13:02:55;4.40;;;1.80;;
61085;SDS011;46967;48.876;2.136;2023-07-22T13:05:21;5.07;;;1.77;;
61085;SDS011;46967;48.876;2.136;2023-07-22T13:07:47;4.65;;;1.83;;
61085;SDS011;46967;48.876;2.136;2023-07-22T13:10:13;5.97;;;1.90;;
61085;SDS011;46967;48.876;2.136;2023-07-22T13:12:45;3.17;;;1.75;;
61085;SDS011;46967;48.876;2.136;2023-07-22T13:15:10;3.75;;;1.90;;
61085;SDS011;46967;48.876;2.136;2023-07-22T13:17:36;2.53;;;1.70;;
61085;SDS011;46967;48.876;2.136;2023-07-22T13:20:01;2.97;;;1.63;;
61085;SDS011;46967;48.876;2.136;2023-07-22T13:22:32;2.65;;;1.90;;
61085;SDS011;46967;48.876;2.136;2023-07-22T13:24:57;4.78;;;1.90;;
61085;SDS011;46967;48.876;2.136;2023-07-22T13:27:23;3.70;;;2.10;;
61085;SDS011;46967;48.876;2.136;2023-07-22T13:29:48;4.15;;;1.95;;
61085;SDS011;46967;48.876;2.136;2023-07-22T13:32:13;3.22;;;1.70;;
61085;SDS011;46967;48.876;2.136;2023-07-22T13:34:39;5.05;;;2.30;;
61085;SDS011;46967;48.876;2.136;2023-07-22T13:37:04;3.70;;;1.83;;
61085;SDS011;46967;48.876;2.136;2023-07-22T13:39:30;4.15;;;1.90;;
61085;SDS011;46967;48.876;2.136;2023-07-22T13:41:56;3.72;;;2.03;;
61085;SDS011;46967;48.876;2.136;2023-07-22T13:44:21;3.25;;;1.98;;
61085;SDS011;46967;48.876;2.136;2023-07-22T13:46:46;3.70;;;2.08;;
61085;SDS011;46967;48.876;2.136;2023-07-22T13:49:12;5.10;;;2.30;;
61085;SDS011;46967;48.876;2.136;2023-07-22T13:51:38;6.38;;;1.98;;
61085;SDS011;46967;48.876;2.136;2023-07-22T13:54:04;4.60;;;1.90;;
61085;SDS011;46967;48.876;2.136;2023-07-22T13:56:29;3.72;;;1.77;;
61085;SDS011;46967;48.876;2.136;2023-07-22T13:58:54;3.17;;;1.98;;
61085;SDS011;46967;48.876;2.136;2023-07-22T14:01:20;3.60;;;2.10;;
61085;SDS011;46967;48.876;2.136;2023-07-22T14:03:45;2.85;;;2.00;;
61085;SDS011;46967;48.876;2.136;2023-07-22T14:06:11;5.70;;;1.83;;
61085;SDS011;46967;48.876;2.136;2023-07-22T14:08:36;2.38;;;2.00;;
61085;SDS011;46967;48.876;2.136;2023-07-22T14:11:01;2.75;;;1.85;;
61085;SDS011;46967;48.876;2.136;2023-07-22T14:13:26;5.28;;;2.00;;
61085;SDS011;46967;48.876;2.136;2023-07-22T14:15:52;3.03;;;1.85;;
61085;SDS011;46967;48.876;2.136;2023-07-22T14:18:18;3.78;;;1.85;;
61085;SDS011;46967;48.876;2.136;2023-07-22T14:20:44;7.45;;;1.90;;
61085;SDS011;46967;48.876;2.136;2023-07-22T14:23:12;3.95;;;2.20;;
61085;SDS011;46967;48.876;2.136;2023-07-22T14:25:38;3.25;;;1.75;;
61085;SDS011;46967;48.876;2.136;2023-07-22T14:28:03;3.25;;;1.67;;
61085;SDS011;46967;48.876;2.136;2023-07-22T14:30:29;3.13;;;1.73;;
61085;SDS011;46967;48.876;2.136;2023-07-22T14:32:54;2.90;;;1.80;;
61085;SDS011;46967;48.876;2.136;2023-07-22T14:35:20;3.75;;;2.25;;
61085;SDS011;46967;48.876;2.136;2023-07-22T14:37:46;3.65;;;2.22;;
61085;SDS011;46967;48.876;2.136;2023-07-22T14:40:11;3.42;;;2.00;;
61085;SDS011;46967;48.876;2.136;2023-07-22T14:42:37;4.07;;;2.10;;
61085;SDS011;46967;48.876;2.136;2023-07-22T14:45:03;6.63;;;2.33;;
61085;SDS011;46967;48.876;2.136;2023-07-22T14:47:29;2.85;;;1.90;;
61085;SDS011;46967;48.876;2.136;2023-07-22T14:49:55;3.13;;;2.05;;
61085;SDS011;46967;48.876;2.136;2023-07-22T14:52:21;3.08;;;2.08;;
61085;SDS011;46967;48.876;2.136;2023-07-22T14:54:47;3.95;;;2.17;;
61085;SDS011;46967;48.876;2.136;2023-07-22T14:57:12;7.43;;;1.90;;
61085;SDS011;46967;48.876;2.136;2023-07-22T14:59:37;3.70;;;2.10;;